Accueil
METAR-TAF:

METAR-TAF

Aéroports :

Joint Base Langley–Eustis

Fort Eustis, Virginie, États-Unis

latitude: 37-08N, longitude: 076-37W, altitude: 4 m

Observation

Le bulletin a été fait il y a 41 minutes, à 00:56 UTC
Vent 5 kt de sud
Température 14°C
Humidité 58%
Pression 1014 hPa
Visibilité: 16.1 km
Ciel clair

METAR: KFAF 120056Z AUTO 17005KT 10SM CLR 14/06 A2995 RMK AO2 SLP145 T01410064 $

Heure: 20:37 (01:37 UTC)


TAF: absent

Observations et prévisions météorologiques de plus de 4000 aéroports (messages METAR et TAF).

Les stations disponibles sont représentées par des disques jaunes et rouges sur la carte.

Passer la souris dessus pour voir le nom de la station.

Cliquer dessus pour voir les observations et prévisions météorologiques.

Pour changer de carte: cliquez sur les boutons verts avec une croix noire pour zoomer, sur le bouton vert avec un tiret pour effectuer un zoom arrière, ou sur les flèches vertes pour les cartes adjacentes.


METAR-TAF: